createdAt,value
2023-02-07T00:01:42.556Z,2.97
2023-02-07T00:04:11.395Z,1.73
2023-02-07T00:06:39.705Z,1.93
2023-02-07T00:09:09.917Z,1.65
2023-02-07T00:11:41.802Z,1.80
2023-02-07T00:14:14.080Z,1.90
2023-02-07T00:16:42.994Z,1.90
2023-02-07T00:19:11.815Z,1.60
2023-02-07T00:21:40.074Z,1.70
2023-02-07T00:24:08.844Z,1.45
2023-02-07T00:26:39.762Z,1.50
2023-02-07T00:29:08.642Z,2.00
2023-02-07T00:31:39.233Z,2.00
2023-02-07T00:34:09.595Z,1.77
2023-02-07T00:36:39.240Z,1.55
2023-02-07T00:39:10.612Z,1.95
2023-02-07T00:41:39.550Z,1.70
2023-02-07T00:44:08.578Z,1.63
2023-02-07T00:46:39.003Z,1.60
2023-02-07T00:49:07.689Z,1.45
2023-02-07T00:51:35.854Z,1.20
2023-02-07T00:54:04.525Z,2.23
2023-02-07T00:56:36.283Z,1.50
2023-02-07T00:59:05.073Z,1.48
2023-02-07T01:01:33.476Z,1.67
2023-02-07T01:04:03.916Z,1.77
2023-02-07T01:06:34.324Z,1.60
2023-02-07T01:09:04.202Z,1.33
2023-02-07T01:11:34.765Z,1.40
2023-02-07T01:14:04.051Z,1.65
2023-02-07T01:16:34.508Z,2.05
2023-02-07T01:19:06.601Z,1.42
2023-02-07T01:21:35.113Z,1.50
2023-02-07T01:24:04.379Z,1.30
2023-02-07T01:26:34.698Z,1.30
2023-02-07T01:29:03.982Z,1.35
2023-02-07T01:31:32.362Z,1.50
2023-02-07T01:34:04.258Z,1.23
2023-02-07T01:36:34.908Z,1.48
2023-02-07T01:39:05.028Z,1.67
2023-02-07T01:41:33.351Z,1.40
2023-02-07T01:44:05.311Z,1.25
2023-02-07T01:46:35.395Z,1.30
2023-02-07T01:49:07.753Z,1.40
2023-02-07T01:51:39.253Z,1.77
2023-02-07T01:54:11.336Z,1.50
2023-02-07T01:56:45.009Z,1.48
2023-02-07T01:59:14.182Z,1.40
2023-02-07T02:01:43.420Z,1.38
2023-02-07T02:04:11.697Z,0.93
2023-02-07T02:06:42.368Z,1.63
2023-02-07T02:09:12.909Z,1.52
2023-02-07T02:12:20.421Z,1.40
2023-02-07T02:15:01.201Z,1.38
2023-02-07T02:17:41.176Z,1.45
2023-02-07T02:20:54.098Z,1.38
2023-02-07T02:23:34.640Z,1.60
2023-02-07T02:26:35.863Z,1.42
2023-02-07T02:29:39.762Z,3.08
2023-02-07T02:32:51.357Z,4.10
2023-02-07T02:35:29.059Z,3.38
2023-02-07T02:38:03.917Z,2.03
2023-02-07T02:40:39.367Z,1.58
2023-02-07T02:43:14.225Z,1.25
2023-02-07T02:45:47.725Z,1.25
2023-02-07T02:48:17.138Z,1.13
2023-02-07T02:50:50.019Z,1.50
2023-02-07T02:53:18.628Z,1.27
2023-02-07T02:56:14.488Z,1.23
2023-02-07T02:59:01.035Z,1.15
2023-02-07T03:01:38.976Z,1.30
2023-02-07T03:04:25.767Z,1.70
2023-02-07T03:07:09.159Z,1.50
2023-02-07T03:09:47.116Z,1.15
2023-02-07T03:12:22.734Z,1.30
2023-02-07T03:14:58.837Z,1.48
2023-02-07T03:17:32.064Z,1.17
2023-02-07T03:20:06.425Z,1.08
2023-02-07T03:22:37.965Z,1.10
2023-02-07T03:25:08.896Z,0.95
2023-02-07T03:27:38.999Z,0.85
2023-02-07T03:34:04.694Z,1.75
2023-02-07T03:36:40.114Z,1.50
2023-02-07T03:39:10.748Z,1.00
2023-02-07T03:41:44.170Z,1.23
2023-02-07T03:44:14.656Z,1.30
2023-02-07T03:46:42.933Z,1.95
2023-02-07T03:49:11.959Z,1.55
2023-02-07T03:51:40.138Z,1.02
2023-02-07T03:54:11.193Z,1.13
2023-02-07T03:56:39.803Z,1.02
2023-02-07T03:59:08.437Z,1.15
2023-02-07T04:01:40.881Z,1.42
2023-02-07T04:04:09.641Z,0.85
2023-02-07T04:06:38.351Z,1.00
2023-02-07T04:09:06.878Z,1.27
2023-02-07T04:11:36.444Z,1.20
2023-02-07T04:14:04.913Z,1.02
2023-02-07T04:16:33.798Z,0.90
2023-02-07T04:19:02.812Z,0.93
2023-02-07T04:21:30.978Z,0.90
2023-02-07T04:23:59.854Z,0.80
2023-02-07T04:26:28.020Z,1.23
2023-02-07T04:28:57.956Z,1.10
2023-02-07T04:31:26.164Z,1.40
2023-02-07T04:33:55.252Z,1.20
2023-02-07T04:36:23.934Z,0.88
2023-02-07T04:38:52.452Z,1.38
2023-02-07T04:41:20.622Z,0.90
2023-02-07T04:43:49.108Z,1.13
2023-02-07T04:46:18.942Z,0.98
2023-02-07T04:48:48.452Z,0.90
2023-02-07T04:51:17.302Z,1.40
2023-02-07T04:53:45.778Z,1.05
2023-02-07T04:56:13.977Z,0.98
2023-02-07T04:58:42.417Z,1.20
2023-02-07T05:01:10.935Z,1.00
2023-02-07T05:03:41.255Z,1.20
2023-02-07T05:06:09.753Z,1.25
2023-02-07T05:08:39.083Z,1.27
2023-02-07T05:11:08.539Z,1.38
2023-02-07T05:13:37.040Z,1.35
2023-02-07T05:16:05.712Z,1.25
2023-02-07T05:18:34.575Z,1.27
2023-02-07T05:21:04.151Z,1.00
2023-02-07T05:23:32.944Z,1.70
2023-02-07T05:26:01.124Z,1.70
2023-02-07T05:28:29.782Z,1.45
2023-02-07T05:31:00.821Z,1.53
2023-02-07T05:33:28.426Z,1.27
2023-02-07T05:35:56.596Z,2.10
2023-02-07T05:38:26.502Z,2.57
2023-02-07T05:40:54.792Z,2.40
2023-02-07T05:43:23.254Z,3.15
2023-02-07T05:45:51.677Z,2.20
2023-02-07T05:48:20.294Z,3.30
2023-02-07T05:50:49.173Z,2.53
2023-02-07T05:53:18.130Z,2.20
2023-02-07T05:55:47.652Z,2.33
2023-02-07T05:58:16.222Z,2.50
2023-02-07T06:00:44.509Z,2.53
2023-02-07T06:03:13.011Z,2.10
2023-02-07T06:05:41.598Z,2.15
2023-02-07T06:08:10.931Z,3.08
2023-02-07T06:10:39.164Z,2.35
2023-02-07T06:13:09.016Z,2.63
2023-02-07T06:15:37.817Z,2.63
2023-02-07T06:18:06.528Z,2.85
2023-02-07T06:20:34.729Z,2.53
2023-02-07T06:23:04.220Z,2.08
2023-02-07T06:28:00.818Z,2.17
2023-02-07T06:30:30.974Z,2.40
2023-02-07T06:32:59.538Z,2.92
2023-02-07T06:35:27.734Z,2.22
2023-02-07T06:37:56.163Z,2.65
2023-02-07T06:40:24.708Z,4.63
2023-02-07T06:42:53.227Z,3.10
2023-02-07T06:45:21.484Z,2.95
2023-02-07T06:47:51.391Z,2.45
2023-02-07T06:50:19.941Z,2.35
2023-02-07T06:52:48.409Z,2.38
2023-02-07T06:55:16.786Z,5.15
2023-02-07T06:57:45.232Z,3.90
2023-02-07T07:00:14.597Z,7.97
2023-02-07T07:02:43.403Z,13.73
2023-02-07T07:05:14.059Z,10.85
2023-02-07T07:07:44.836Z,10.32
2023-02-07T07:10:14.103Z,7.45
2023-02-07T07:12:42.692Z,3.78
2023-02-07T07:15:14.178Z,2.75
2023-02-07T07:17:45.945Z,3.33
2023-02-07T07:20:15.940Z,3.05
2023-02-07T07:22:44.587Z,3.45
2023-02-07T07:25:13.559Z,3.77
2023-02-07T07:27:42.725Z,2.83
2023-02-07T07:30:12.499Z,4.35
2023-02-07T07:32:41.218Z,3.75
2023-02-07T07:35:10.172Z,3.30
2023-02-07T07:40:11.401Z,3.70
2023-02-07T07:42:40.022Z,4.82
2023-02-07T07:45:10.236Z,4.87
2023-02-07T07:47:38.775Z,5.50
2023-02-07T07:50:08.513Z,6.03
2023-02-07T07:52:37.605Z,4.78
2023-02-07T07:55:08.307Z,5.05
2023-02-07T07:57:38.049Z,6.00
2023-02-07T08:00:06.913Z,4.78
2023-02-07T08:02:35.790Z,5.65
2023-02-07T08:05:04.001Z,5.47
2023-02-07T08:07:32.771Z,6.47
2023-02-07T08:10:01.423Z,5.88
2023-02-07T08:12:31.658Z,5.65
2023-02-07T08:15:00.007Z,5.53
2023-02-07T08:17:29.148Z,5.20
2023-02-07T08:19:57.891Z,5.30
2023-02-07T08:22:26.765Z,6.20
2023-02-07T08:24:55.030Z,6.03
2023-02-07T08:27:24.867Z,5.18
2023-02-07T08:29:54.896Z,5.95
2023-02-07T08:32:27.267Z,5.95
2023-02-07T08:34:56.006Z,6.45
2023-02-07T08:37:24.577Z,6.82
2023-02-07T08:39:53.064Z,5.88
2023-02-07T08:42:22.206Z,6.30
2023-02-07T08:44:51.318Z,7.13
2023-02-07T08:47:21.188Z,5.95
2023-02-07T08:49:49.414Z,6.82
2023-02-07T08:52:17.852Z,6.60
2023-02-07T08:54:46.021Z,6.30
2023-02-07T08:57:14.499Z,9.70
2023-02-07T08:59:43.584Z,8.55
2023-02-07T09:04:43.375Z,6.28
2023-02-07T09:07:12.769Z,4.78
2023-02-07T09:09:41.224Z,5.28
2023-02-07T09:12:10.546Z,5.63
2023-02-07T09:14:43.750Z,7.20
2023-02-07T09:17:12.559Z,7.25
2023-02-07T09:19:42.448Z,4.20
2023-02-07T09:22:11.243Z,3.97
2023-02-07T09:24:39.740Z,4.00
2023-02-07T09:27:08.658Z,4.30
2023-02-07T09:29:36.888Z,3.80
2023-02-07T09:32:05.912Z,3.30
2023-02-07T09:34:34.829Z,4.15
2023-02-07T09:37:04.651Z,4.25
2023-02-07T09:39:33.603Z,4.13
2023-02-07T09:42:17.707Z,3.25
2023-02-07T09:44:57.495Z,3.80
2023-02-07T09:47:28.715Z,7.38
2023-02-07T09:50:00.704Z,5.15
2023-02-07T09:52:35.015Z,3.90
2023-02-07T09:55:05.618Z,4.20
2023-02-07T09:57:39.345Z,3.65
2023-02-07T10:00:17.068Z,3.05
2023-02-07T10:02:51.388Z,3.80
2023-02-07T10:05:23.391Z,2.53
2023-02-07T10:07:53.664Z,3.15
2023-02-07T10:10:32.842Z,3.88
2023-02-07T10:15:58.521Z,3.50
2023-02-07T10:18:46.192Z,3.45
2023-02-07T10:21:23.892Z,3.15
2023-02-07T10:24:10.312Z,3.78
2023-02-07T10:26:42.601Z,3.20
2023-02-07T10:29:39.367Z,3.20
2023-02-07T10:32:22.945Z,3.53
2023-02-07T10:34:58.373Z,2.58
2023-02-07T10:37:28.691Z,2.90
2023-02-07T10:40:05.625Z,3.70
2023-02-07T10:42:37.698Z,2.83
2023-02-07T10:45:09.099Z,3.28
2023-02-07T10:47:41.087Z,3.03
2023-02-07T10:50:18.625Z,2.55
2023-02-07T10:52:55.947Z,2.70
2023-02-07T10:55:40.978Z,3.58
2023-02-07T10:58:22.737Z,2.85
2023-02-07T11:00:54.072Z,3.42
2023-02-07T11:03:24.129Z,2.80
2023-02-07T11:05:56.636Z,3.10
2023-02-07T11:08:28.014Z,3.10
2023-02-07T11:11:00.035Z,3.00
2023-02-07T11:13:30.554Z,3.70
2023-02-07T11:16:04.336Z,2.83
2023-02-07T11:18:44.960Z,3.80
2023-02-07T11:21:27.169Z,3.42
2023-02-07T11:24:00.168Z,3.15
2023-02-07T11:26:31.837Z,3.67
2023-02-07T11:29:08.137Z,3.88
2023-02-07T11:31:40.510Z,3.70
2023-02-07T11:34:26.092Z,3.00
2023-02-07T11:36:55.090Z,3.03
2023-02-07T11:39:24.831Z,3.20
2023-02-07T11:42:01.795Z,3.42
2023-02-07T11:44:31.987Z,3.25
2023-02-07T11:47:05.949Z,4.65
2023-02-07T11:49:43.771Z,3.38
2023-02-07T11:52:13.402Z,3.35
2023-02-07T11:54:44.296Z,3.20
2023-02-07T11:57:15.911Z,3.85
2023-02-07T11:59:50.217Z,3.45
2023-02-07T12:02:22.338Z,3.92
2023-02-07T12:04:51.022Z,4.25
2023-02-07T12:07:25.742Z,3.28
2023-02-07T12:09:57.207Z,3.63
2023-02-07T12:12:35.473Z,4.93
2023-02-07T12:15:10.757Z,3.35
2023-02-07T12:17:43.736Z,4.00
2023-02-07T12:20:23.561Z,3.05
2023-02-07T12:23:11.629Z,3.20
2023-02-07T12:25:51.986Z,3.88
2023-02-07T12:28:29.661Z,3.10
2023-02-07T12:31:04.085Z,3.35
2023-02-07T12:33:41.990Z,2.95
2023-02-07T12:36:15.718Z,2.90
2023-02-07T12:38:52.081Z,3.92
2023-02-07T12:41:25.314Z,2.70
2023-02-07T12:44:07.033Z,3.45
2023-02-07T12:46:43.766Z,4.35
2023-02-07T12:49:46.348Z,3.20
2023-02-07T12:52:26.297Z,5.38
2023-02-07T12:55:10.239Z,3.53
2023-02-07T12:57:50.067Z,3.50
2023-02-07T13:00:25.945Z,3.40
2023-02-07T13:03:07.903Z,3.53
2023-02-07T13:05:50.838Z,4.28
2023-02-07T13:08:29.942Z,5.03
2023-02-07T13:11:09.285Z,6.97
2023-02-07T13:13:44.665Z,4.47
2023-02-07T13:16:20.083Z,4.85
2023-02-07T13:18:54.653Z,4.30
2023-02-07T13:21:31.602Z,4.03
2023-02-07T13:24:02.866Z,3.80
2023-02-07T13:26:37.379Z,3.67
2023-02-07T13:29:12.798Z,3.75
2023-02-07T13:31:46.840Z,3.97
2023-02-07T13:34:19.412Z,5.10
2023-02-07T13:36:50.056Z,5.65
2023-02-07T13:39:35.491Z,4.95
2023-02-07T13:42:17.114Z,4.65
2023-02-07T13:44:52.822Z,4.90
2023-02-07T13:47:35.285Z,4.97
2023-02-07T13:50:15.204Z,4.40
2023-02-07T13:52:50.610Z,4.82
2023-02-07T13:55:28.857Z,4.70
2023-02-07T13:58:14.963Z,5.25
2023-02-07T14:01:11.511Z,4.30
2023-02-07T14:03:41.548Z,4.18
2023-02-07T14:06:22.704Z,4.35
2023-02-07T14:09:02.718Z,5.55
2023-02-07T14:11:42.160Z,6.53
2023-02-07T14:14:18.052Z,6.47
2023-02-07T14:16:50.431Z,8.32
2023-02-07T14:19:54.885Z,8.05
2023-02-07T14:22:26.864Z,7.85
2023-02-07T14:25:21.851Z,6.35
2023-02-07T14:28:21.217Z,5.07
2023-02-07T14:31:04.431Z,5.68
2023-02-07T14:33:36.170Z,4.47
2023-02-07T14:36:19.754Z,4.18
2023-02-07T14:39:05.088Z,4.75
2023-02-07T14:41:36.860Z,4.72
2023-02-07T14:44:10.231Z,5.00
2023-02-07T14:46:41.972Z,4.97
2023-02-07T14:49:18.205Z,5.97
2023-02-07T14:51:51.464Z,8.18
2023-02-07T14:54:27.330Z,8.63
2023-02-07T14:57:04.263Z,5.95
2023-02-07T14:59:38.059Z,4.40
2023-02-07T15:02:30.779Z,4.95
2023-02-07T15:05:00.066Z,4.60
2023-02-07T15:12:29.030Z,5.38
2023-02-07T15:14:58.118Z,5.40
2023-02-07T15:17:42.604Z,6.13
2023-02-07T15:20:17.548Z,4.85
2023-02-07T15:22:52.000Z,4.50
2023-02-07T15:25:20.344Z,5.30
2023-02-07T15:28:01.249Z,6.13
2023-02-07T15:30:30.291Z,7.30
2023-02-07T15:32:59.433Z,6.55
2023-02-07T15:35:30.017Z,6.00
2023-02-07T15:38:18.989Z,5.10
2023-02-07T15:40:47.391Z,5.22
2023-02-07T15:43:28.544Z,4.30
2023-02-07T15:46:09.258Z,4.57
2023-02-07T15:48:49.941Z,5.53
2023-02-07T15:51:21.471Z,8.13
2023-02-07T15:53:53.475Z,6.25
2023-02-07T15:56:21.897Z,6.28
2023-02-07T15:58:51.735Z,5.82
2023-02-07T16:01:25.213Z,6.25
2023-02-07T16:03:57.997Z,5.30
2023-02-07T16:06:29.200Z,6.05
2023-02-07T16:09:00.954Z,6.68
2023-02-07T16:11:41.269Z,11.05
2023-02-07T16:14:19.506Z,7.03
2023-02-07T16:16:50.469Z,5.35
2023-02-07T16:19:20.983Z,6.45
2023-02-07T16:21:54.758Z,6.45
2023-02-07T16:24:27.766Z,7.38
2023-02-07T16:26:58.532Z,7.68
2023-02-07T16:29:28.150Z,10.07
2023-02-07T16:31:58.774Z,8.68
2023-02-07T16:34:27.385Z,7.55
2023-02-07T16:36:57.309Z,7.13
2023-02-07T16:39:27.614Z,8.32
2023-02-07T16:41:58.301Z,7.20
2023-02-07T16:44:31.381Z,10.52
2023-02-07T16:46:59.740Z,10.13
2023-02-07T16:49:31.330Z,8.65
2023-02-07T16:52:00.440Z,7.78
2023-02-07T16:54:30.594Z,7.13
2023-02-07T16:59:31.504Z,7.25
2023-02-07T17:02:00.313Z,7.68
2023-02-07T17:04:29.088Z,7.10
2023-02-07T17:06:57.441Z,7.20
2023-02-07T17:09:27.256Z,8.18
2023-02-07T17:11:56.934Z,7.95
2023-02-07T17:14:26.102Z,7.57
2023-02-07T17:16:55.058Z,9.07
2023-02-07T17:19:24.550Z,8.52
2023-02-07T17:21:53.662Z,8.02
2023-02-07T17:26:52.954Z,6.18
2023-02-07T17:29:23.435Z,7.90
2023-02-07T17:31:52.555Z,7.80
2023-02-07T17:36:50.859Z,11.02
2023-02-07T17:39:21.102Z,10.07
2023-02-07T17:41:50.281Z,12.57
2023-02-07T17:46:51.530Z,19.75
2023-02-07T17:49:20.380Z,22.30
2023-02-07T17:51:48.776Z,22.05
2023-02-07T17:54:18.329Z,11.55
2023-02-07T17:56:46.952Z,10.80
2023-02-07T17:59:24.063Z,11.68
2023-02-07T18:01:53.860Z,9.45
2023-02-07T18:04:22.896Z,9.75
2023-02-07T18:06:51.158Z,12.80
2023-02-07T18:09:21.043Z,17.80
2023-02-07T18:11:51.133Z,12.90
2023-02-07T18:14:19.708Z,15.52
2023-02-07T18:16:48.473Z,16.42
2023-02-07T18:19:20.644Z,16.08
2023-02-07T18:21:49.497Z,14.48
2023-02-07T18:24:18.227Z,14.70
2023-02-07T18:26:47.424Z,13.65
2023-02-07T18:29:17.098Z,14.85
2023-02-07T18:31:46.125Z,13.93
2023-02-07T18:34:14.437Z,14.68
2023-02-07T18:36:44.593Z,14.93
2023-02-07T18:39:13.740Z,14.13
2023-02-07T18:41:46.195Z,15.02
2023-02-07T18:44:15.100Z,17.02
2023-02-07T18:46:44.122Z,15.63
2023-02-07T18:49:14.839Z,15.93
2023-02-07T18:51:45.167Z,20.13
2023-02-07T18:54:13.686Z,40.80
2023-02-07T18:56:42.415Z,32.78
2023-02-07T18:59:10.935Z,25.88
2023-02-07T19:01:40.286Z,18.02
2023-02-07T19:04:08.990Z,19.73
2023-02-07T19:06:37.693Z,18.67
2023-02-07T19:09:10.446Z,17.67
2023-02-07T19:11:40.009Z,11.65
2023-02-07T19:14:13.841Z,10.45
2023-02-07T19:16:43.402Z,8.57
2023-02-07T19:19:14.699Z,8.77
2023-02-07T19:21:43.518Z,8.38
2023-02-07T19:24:18.948Z,9.63
2023-02-07T19:26:50.316Z,9.68
2023-02-07T19:29:25.226Z,7.88
2023-02-07T19:31:53.915Z,8.40
2023-02-07T19:34:22.175Z,7.57
2023-02-07T19:36:50.819Z,7.77
2023-02-07T19:39:20.938Z,8.52
2023-02-07T19:41:52.245Z,8.35
2023-02-07T19:44:20.550Z,9.32
2023-02-07T19:46:49.297Z,9.55
2023-02-07T19:49:17.713Z,10.70
2023-02-07T19:51:46.378Z,7.68
2023-02-07T19:54:15.622Z,7.88
2023-02-07T19:59:16.103Z,6.90
2023-02-07T20:01:44.750Z,6.27
2023-02-07T20:04:13.002Z,7.37
2023-02-07T20:06:45.864Z,6.85
2023-02-07T20:09:14.519Z,6.95
2023-02-07T20:11:43.300Z,7.32
2023-02-07T20:14:13.077Z,6.80
2023-02-07T20:16:44.480Z,6.97
2023-02-07T20:19:13.394Z,6.63
2023-02-07T20:21:42.245Z,7.75
2023-02-07T20:24:10.550Z,8.63
2023-02-07T20:26:42.587Z,7.53
2023-02-07T20:29:18.543Z,7.13
2023-02-07T20:31:50.764Z,7.75
2023-02-07T20:34:19.913Z,7.45
2023-02-07T20:39:20.826Z,7.15
2023-02-07T20:41:50.197Z,7.13
2023-02-07T20:44:23.137Z,7.43
2023-02-07T20:46:52.892Z,6.75
2023-02-07T20:51:53.998Z,8.52
2023-02-07T20:54:25.961Z,8.70
2023-02-07T20:56:56.320Z,7.55
2023-02-07T20:59:35.604Z,7.30
2023-02-07T21:02:07.075Z,8.13
2023-02-07T21:04:37.469Z,8.30
2023-02-07T21:07:06.577Z,7.70
2023-02-07T21:09:35.074Z,8.23
2023-02-07T21:12:04.258Z,8.05
2023-02-07T21:14:35.036Z,7.88
2023-02-07T21:17:06.482Z,7.88
2023-02-07T21:19:36.758Z,8.15
2023-02-07T21:22:05.797Z,9.77
2023-02-07T21:24:34.517Z,8.98
2023-02-07T21:27:05.196Z,8.90
2023-02-07T21:29:36.508Z,10.32
2023-02-07T21:32:06.268Z,11.43
2023-02-07T21:34:34.806Z,11.32
2023-02-07T21:37:03.734Z,11.80
2023-02-07T21:39:31.956Z,12.05
2023-02-07T21:42:00.402Z,11.87
2023-02-07T21:44:29.410Z,11.73
2023-02-07T21:46:59.251Z,11.95
2023-02-07T21:49:27.588Z,12.18
2023-02-07T21:51:56.072Z,12.82
2023-02-07T21:54:24.277Z,10.75
2023-02-07T21:56:52.931Z,11.50
2023-02-07T21:59:22.438Z,14.75
2023-02-07T22:01:51.299Z,14.52
2023-02-07T22:04:22.766Z,15.40
2023-02-07T22:06:51.319Z,14.32
2023-02-07T22:09:22.056Z,13.50
2023-02-07T22:11:51.631Z,16.23
2023-02-07T22:14:19.930Z,18.02
2023-02-07T22:16:52.089Z,19.08
2023-02-07T22:19:22.979Z,16.55
2023-02-07T22:21:51.951Z,16.58
2023-02-07T22:24:21.578Z,17.90
2023-02-07T22:26:50.237Z,16.77
2023-02-07T22:29:18.513Z,18.00
2023-02-07T22:31:47.485Z,17.30
2023-02-07T22:34:16.093Z,16.20
2023-02-07T22:36:46.675Z,15.38
2023-02-07T22:39:16.683Z,14.65
2023-02-07T22:41:45.573Z,12.95
2023-02-07T22:44:13.862Z,12.70
2023-02-07T22:46:43.497Z,12.98
2023-02-07T22:49:12.278Z,12.38
2023-02-07T22:51:40.844Z,12.73
2023-02-07T22:54:16.369Z,12.48
2023-02-07T22:56:45.969Z,11.73
2023-02-07T23:01:43.870Z,10.80
2023-02-07T23:06:44.807Z,8.43
2023-02-07T23:09:14.830Z,9.60
2023-02-07T23:11:43.318Z,10.32
2023-02-07T23:14:11.935Z,9.52
2023-02-07T23:16:41.101Z,10.85
2023-02-07T23:19:12.473Z,9.30
2023-02-07T23:21:41.363Z,10.43
2023-02-07T23:24:10.780Z,8.35
2023-02-07T23:26:40.799Z,8.85
2023-02-07T23:29:08.991Z,9.63
2023-02-07T23:31:37.513Z,9.27
2023-02-07T23:34:09.465Z,8.20
2023-02-07T23:36:38.653Z,6.65
2023-02-07T23:39:07.563Z,6.70
2023-02-07T23:41:36.210Z,5.45
2023-02-07T23:44:06.690Z,6.75
2023-02-07T23:46:36.407Z,6.40
2023-02-07T23:51:33.675Z,6.97
2023-02-07T23:54:02.161Z,6.18
2023-02-07T23:56:30.856Z,7.53
2023-02-07T23:58:59.456Z,5.60
